createdAt,value
2019-04-30T00:01:48.570Z,34.92
2019-04-30T00:04:15.900Z,37.50
2019-04-30T00:06:45.384Z,38.23
2019-04-30T00:09:18.917Z,33.80
2019-04-30T00:11:46.099Z,30.95
2019-04-30T00:14:15.244Z,36.30
2019-04-30T00:16:45.128Z,32.75
2019-04-30T00:19:15.756Z,26.23
2019-04-30T00:21:50.097Z,32.25
2019-04-30T00:24:15.748Z,35.63
2019-04-30T00:26:44.993Z,39.33
2019-04-30T00:29:19.158Z,29.05
2019-04-30T00:31:44.672Z,31.93
2019-04-30T00:34:15.172Z,46.95
2019-04-30T00:36:43.542Z,45.10
2019-04-30T00:39:13.215Z,38.83
2019-04-30T00:41:45.940Z,41.68
2019-04-30T00:44:11.570Z,42.70
2019-04-30T00:46:40.054Z,53.42
2019-04-30T00:49:11.187Z,37.60
2019-04-30T00:51:38.164Z,34.85
2019-04-30T00:54:06.360Z,32.35
2019-04-30T00:56:35.546Z,28.95
2019-04-30T00:59:08.236Z,44.23
2019-04-30T01:01:39.056Z,47.58
2019-04-30T01:04:09.935Z,36.13
2019-04-30T01:06:38.110Z,35.23
2019-04-30T01:09:08.629Z,38.55
2019-04-30T01:11:39.783Z,37.03
2019-04-30T01:14:06.666Z,37.38
2019-04-30T01:16:34.852Z,43.87
2019-04-30T01:19:05.661Z,44.20
2019-04-30T01:21:32.946Z,36.28
2019-04-30T01:24:01.142Z,36.45
2019-04-30T01:26:31.027Z,34.70
2019-04-30T01:29:02.068Z,31.27
2019-04-30T01:31:36.938Z,42.35
2019-04-30T01:34:00.261Z,37.73
2019-04-30T01:36:29.374Z,36.40
2019-04-30T01:38:59.294Z,41.42
2019-04-30T01:41:31.315Z,41.88
2019-04-30T01:43:58.485Z,37.23
2019-04-30T01:46:26.799Z,33.25
2019-04-30T01:48:55.001Z,34.15
2019-04-30T01:51:23.522Z,46.25
2019-04-30T01:53:51.749Z,42.78
2019-04-30T01:56:21.913Z,39.33
2019-04-30T01:58:51.738Z,42.78
2019-04-30T02:01:24.098Z,37.95
2019-04-30T02:03:52.581Z,41.35
2019-04-30T02:06:20.778Z,37.45
2019-04-30T02:08:49.369Z,32.83
2019-04-30T02:11:18.978Z,37.10
2019-04-30T02:13:49.194Z,35.40
2019-04-30T02:16:18.755Z,33.60
2019-04-30T02:18:49.459Z,36.28
2019-04-30T02:21:19.524Z,34.05
2019-04-30T02:23:49.303Z,38.15
2019-04-30T02:26:18.774Z,43.40
2019-04-30T02:28:49.386Z,31.45
2019-04-30T02:31:22.327Z,42.15
2019-04-30T02:33:50.293Z,31.37
2019-04-30T02:36:32.311Z,40.03
2019-04-30T02:39:02.632Z,36.90
2019-04-30T02:41:31.041Z,43.60
2019-04-30T02:43:59.810Z,33.10
2019-04-30T02:46:31.997Z,36.25
2019-04-30T02:48:59.799Z,32.63
2019-04-30T02:51:29.954Z,38.40
2019-04-30T02:54:12.930Z,36.63
2019-04-30T02:56:42.767Z,34.48
2019-04-30T02:59:11.208Z,36.03
2019-04-30T03:01:40.248Z,34.18
2019-04-30T03:04:09.860Z,30.50
2019-04-30T03:06:40.188Z,35.00
2019-04-30T03:09:10.344Z,38.65
2019-04-30T03:11:40.586Z,46.15
2019-04-30T03:14:10.245Z,43.17
2019-04-30T03:16:43.470Z,33.42
2019-04-30T03:19:25.280Z,32.70
2019-04-30T03:22:00.170Z,33.10
2019-04-30T03:24:29.534Z,40.33
2019-04-30T03:26:59.457Z,40.83
2019-04-30T03:29:30.257Z,46.02
2019-04-30T03:32:02.066Z,33.63
2019-04-30T03:34:31.829Z,35.30
2019-04-30T03:37:01.685Z,36.77
2019-04-30T03:39:29.733Z,50.00
2019-04-30T03:41:59.676Z,46.37
2019-04-30T03:44:31.563Z,36.00
2019-04-30T03:46:59.310Z,36.45
2019-04-30T03:49:29.840Z,34.15
2019-04-30T03:51:59.806Z,39.98
2019-04-30T03:54:29.251Z,36.13
2019-04-30T03:57:00.625Z,36.42
2019-04-30T03:59:30.106Z,31.97
2019-04-30T04:02:06.233Z,38.40
2019-04-30T04:04:39.666Z,36.42
2019-04-30T04:07:10.209Z,37.67
2019-04-30T04:09:59.824Z,28.65
2019-04-30T04:12:30.253Z,38.85
2019-04-30T04:15:03.266Z,36.25
2019-04-30T04:17:31.293Z,36.60
2019-04-30T04:19:59.866Z,35.98
2019-04-30T04:22:30.602Z,29.90
2019-04-30T04:25:00.054Z,28.67
2019-04-30T04:27:30.077Z,31.52
2019-04-30T04:30:01.095Z,33.18
2019-04-30T04:32:30.885Z,36.68
2019-04-30T04:35:00.170Z,37.73
2019-04-30T04:37:30.105Z,41.65
2019-04-30T04:39:59.561Z,36.50
2019-04-30T04:42:30.003Z,36.93
2019-04-30T04:44:59.486Z,35.58
2019-04-30T04:47:30.871Z,37.08
2019-04-30T04:50:00.653Z,36.73
2019-04-30T04:52:31.616Z,28.80
2019-04-30T04:55:00.451Z,28.00
2019-04-30T04:57:30.508Z,26.95
2019-04-30T05:00:03.489Z,26.95
2019-04-30T05:02:46.328Z,21.37
2019-04-30T05:05:14.508Z,24.75
2019-04-30T05:07:42.746Z,28.00
2019-04-30T05:10:11.889Z,28.40
2019-04-30T05:12:40.412Z,24.60
2019-04-30T05:15:09.546Z,24.15
2019-04-30T05:17:39.765Z,22.67
2019-04-30T05:20:09.994Z,24.90
2019-04-30T05:22:39.021Z,23.77
2019-04-30T05:25:08.802Z,21.05
2019-04-30T05:27:39.077Z,18.50
2019-04-30T05:30:09.729Z,21.12
2019-04-30T05:32:39.086Z,15.05
2019-04-30T05:35:09.562Z,16.05
2019-04-30T05:37:38.470Z,15.32
2019-04-30T05:40:09.117Z,13.60
2019-04-30T05:42:38.518Z,16.65
2019-04-30T05:45:09.370Z,13.62
2019-04-30T05:47:38.874Z,15.58
2019-04-30T05:50:08.977Z,13.60
2019-04-30T05:52:39.501Z,13.30
2019-04-30T05:55:08.566Z,13.13
2019-04-30T05:57:36.983Z,14.43
2019-04-30T06:00:09.308Z,13.48
2019-04-30T06:02:37.145Z,19.40
2019-04-30T06:05:06.276Z,16.42
2019-04-30T06:07:34.760Z,14.63
2019-04-30T06:10:04.885Z,16.62
2019-04-30T06:12:52.821Z,14.60
2019-04-30T06:15:29.108Z,15.95
2019-04-30T06:18:01.801Z,14.83
2019-04-30T06:20:28.783Z,15.03
2019-04-30T06:22:57.134Z,15.63
2019-04-30T06:25:32.393Z,14.60
2019-04-30T06:27:55.311Z,13.78
2019-04-30T06:30:23.946Z,13.80
2019-04-30T06:32:52.125Z,13.85
2019-04-30T06:35:20.621Z,17.27
2019-04-30T06:37:49.106Z,15.98
2019-04-30T06:40:19.631Z,16.57
2019-04-30T06:42:49.338Z,15.50
2019-04-30T06:45:19.173Z,13.45
2019-04-30T06:47:48.937Z,12.58
2019-04-30T06:50:19.211Z,9.58
2019-04-30T06:52:56.215Z,10.03
2019-04-30T06:55:19.109Z,9.78
2019-04-30T06:57:47.040Z,11.55
2019-04-30T07:00:15.239Z,9.13
2019-04-30T07:02:43.423Z,10.10
2019-04-30T07:05:12.035Z,9.45
2019-04-30T07:07:41.897Z,9.63
2019-04-30T07:10:17.008Z,12.50
2019-04-30T07:12:49.162Z,10.32
2019-04-30T07:15:19.529Z,9.67
2019-04-30T07:17:49.155Z,12.05
2019-04-30T07:20:19.147Z,10.58
2019-04-30T07:22:52.543Z,8.43
2019-04-30T07:25:19.519Z,6.45
2019-04-30T07:27:50.565Z,6.25
2019-04-30T07:30:19.224Z,5.10
2019-04-30T07:32:48.769Z,7.75
2019-04-30T07:35:19.442Z,5.72
2019-04-30T07:37:49.522Z,7.95
2019-04-30T07:40:19.047Z,9.28
2019-04-30T07:42:49.309Z,7.78
2019-04-30T07:45:19.426Z,7.83
2019-04-30T07:47:49.507Z,6.90
2019-04-30T07:50:20.797Z,8.58
2019-04-30T07:53:01.979Z,5.87
2019-04-30T07:55:19.583Z,7.67
2019-04-30T07:57:50.557Z,7.58
2019-04-30T08:00:19.413Z,8.05
2019-04-30T08:02:50.453Z,10.68
2019-04-30T08:05:20.427Z,8.78
2019-04-30T08:07:49.102Z,8.95
2019-04-30T08:10:18.765Z,8.28
2019-04-30T08:12:49.990Z,8.33
2019-04-30T08:15:19.193Z,7.58
2019-04-30T08:18:01.661Z,7.72
2019-04-30T08:20:19.491Z,8.80
2019-04-30T08:22:49.396Z,9.85
2019-04-30T08:25:19.933Z,12.18
2019-04-30T08:27:49.268Z,7.40
2019-04-30T08:30:26.045Z,8.38
2019-04-30T08:32:49.983Z,6.85
2019-04-30T08:35:19.705Z,6.80
2019-04-30T08:37:49.659Z,6.28
2019-04-30T08:40:20.959Z,8.95
2019-04-30T08:42:49.690Z,5.92
2019-04-30T08:45:19.698Z,6.03
2019-04-30T08:47:49.354Z,4.55
2019-04-30T08:50:19.595Z,6.62
2019-04-30T08:52:49.752Z,4.25
2019-04-30T08:55:19.747Z,4.83
2019-04-30T08:57:49.859Z,4.15
2019-04-30T09:00:19.539Z,4.33
2019-04-30T09:02:49.187Z,5.87
2019-04-30T09:05:19.439Z,6.12
2019-04-30T09:07:48.676Z,5.60
2019-04-30T09:10:19.254Z,4.42
2019-04-30T09:12:49.616Z,4.47
2019-04-30T09:15:18.836Z,4.97
2019-04-30T09:18:00.308Z,4.10
2019-04-30T09:20:19.303Z,5.62
2019-04-30T09:22:47.325Z,6.42
2019-04-30T09:25:15.961Z,5.55
2019-04-30T09:27:44.134Z,5.90
2019-04-30T09:30:12.311Z,5.75
2019-04-30T09:32:40.494Z,4.80
2019-04-30T09:35:09.562Z,3.67
2019-04-30T09:37:39.414Z,6.87
2019-04-30T09:40:16.131Z,4.35
2019-04-30T09:42:39.078Z,5.28
2019-04-30T09:45:08.806Z,4.67
2019-04-30T09:47:37.047Z,3.12
2019-04-30T09:50:06.248Z,4.90
2019-04-30T09:52:36.112Z,3.40
2019-04-30T09:55:06.188Z,2.75
2019-04-30T09:57:34.683Z,3.52
2019-04-30T10:00:03.979Z,3.75
2019-04-30T10:02:32.438Z,3.98
2019-04-30T10:05:01.026Z,4.10
2019-04-30T10:07:29.811Z,5.55
2019-04-30T10:09:59.090Z,3.55
2019-04-30T10:12:29.414Z,4.22
2019-04-30T10:14:59.255Z,3.45
2019-04-30T10:17:32.235Z,5.70
2019-04-30T10:20:00.411Z,3.62
2019-04-30T10:22:28.597Z,3.42
2019-04-30T10:24:56.780Z,6.78
2019-04-30T10:27:25.684Z,2.77
2019-04-30T10:29:54.131Z,4.20
2019-04-30T10:32:22.313Z,4.35
2019-04-30T10:34:50.793Z,3.85
2019-04-30T10:37:19.275Z,3.70
2019-04-30T10:39:48.994Z,5.85
2019-04-30T10:42:17.430Z,4.42
2019-04-30T10:44:45.610Z,5.70
2019-04-30T10:47:14.426Z,4.45
2019-04-30T10:49:42.616Z,5.35
2019-04-30T10:52:10.794Z,4.40
2019-04-30T10:54:39.109Z,4.85
2019-04-30T10:57:08.690Z,4.62
2019-04-30T10:59:37.167Z,6.85
2019-04-30T11:02:05.431Z,5.62
2019-04-30T11:04:33.902Z,5.03
2019-04-30T11:07:02.085Z,4.65
2019-04-30T11:09:31.172Z,5.85
2019-04-30T11:12:02.697Z,6.20
2019-04-30T11:14:30.118Z,4.62
2019-04-30T11:16:59.892Z,4.92
2019-04-30T14:16:47.228Z,13.68
2019-04-30T14:22:57.581Z,12.98
2019-04-30T14:28:55.015Z,15.35
2019-04-30T14:31:23.202Z,16.15
2019-04-30T14:33:51.379Z,13.85
2019-04-30T14:36:19.571Z,19.12
2019-04-30T14:38:48.856Z,12.37
2019-04-30T14:41:17.808Z,9.35
2019-04-30T14:43:50.489Z,16.60
2019-04-30T14:46:22.561Z,9.90
2019-04-30T14:48:53.550Z,10.48
2019-04-30T14:51:22.453Z,11.78
2019-04-30T14:53:52.270Z,11.18
2019-04-30T14:56:24.817Z,12.28
2019-04-30T14:59:00.144Z,15.38
2019-04-30T15:01:32.615Z,13.60
2019-04-30T15:04:00.788Z,17.35
2019-04-30T15:06:29.279Z,12.00
2019-04-30T15:08:59.133Z,12.78
2019-04-30T15:11:28.874Z,15.08
2019-04-30T15:13:59.062Z,14.73
2019-04-30T15:16:26.981Z,12.15
2019-04-30T15:18:55.165Z,10.82
2019-04-30T15:21:23.658Z,17.40
2019-04-30T15:23:58.599Z,13.32
2019-04-30T15:26:25.126Z,14.63
2019-04-30T15:28:53.600Z,17.10
2019-04-30T15:31:22.081Z,11.70
2019-04-30T15:34:02.268Z,16.73
2019-04-30T15:36:22.109Z,13.40
2019-04-30T15:38:57.679Z,13.78
2019-04-30T15:41:26.146Z,15.60
2019-04-30T15:43:54.729Z,14.95
2019-04-30T15:46:23.626Z,15.32
2019-04-30T15:48:51.814Z,15.15
2019-04-30T15:51:19.994Z,15.68
2019-04-30T15:53:48.585Z,15.00
2019-04-30T15:56:16.761Z,15.85
2019-04-30T15:58:49.318Z,16.90
2019-04-30T16:01:19.176Z,15.15
2019-04-30T16:03:54.443Z,14.98
2019-04-30T16:06:22.945Z,26.25
2019-04-30T16:08:58.402Z,15.70
2019-04-30T16:11:37.258Z,19.00
2019-04-30T16:14:22.797Z,18.95
2019-04-30T16:16:52.617Z,16.82
2019-04-30T16:19:20.807Z,18.37
2019-04-30T16:21:48.985Z,15.88
2019-04-30T16:24:18.729Z,15.88
2019-04-30T16:26:50.611Z,14.63
2019-04-30T16:29:16.965Z,16.40
2019-04-30T16:31:45.444Z,17.12
2019-04-30T16:34:13.929Z,18.73
2019-04-30T16:36:42.414Z,20.02
2019-04-30T16:39:10.621Z,19.37
2019-04-30T16:41:40.747Z,19.23
2019-04-30T16:44:09.184Z,15.45
2019-04-30T16:46:39.481Z,19.15
2019-04-30T16:49:09.985Z,22.75
2019-04-30T16:51:38.594Z,19.02
2019-04-30T16:54:08.646Z,19.50
2019-04-30T16:56:38.656Z,16.48
2019-04-30T16:59:08.685Z,14.65
2019-04-30T17:01:36.860Z,16.80
2019-04-30T17:04:25.624Z,19.30
2019-04-30T17:06:55.759Z,17.67
2019-04-30T17:09:31.038Z,17.10
2019-04-30T17:12:00.857Z,18.30
2019-04-30T17:14:30.805Z,17.67
2019-04-30T17:16:59.823Z,18.05
2019-04-30T17:19:29.231Z,15.95
2019-04-30T17:21:57.518Z,15.58
2019-04-30T17:24:25.955Z,15.83
2019-04-30T17:26:54.446Z,15.58
2019-04-30T17:29:22.639Z,19.20
2019-04-30T17:31:50.816Z,19.35
2019-04-30T17:34:19.274Z,22.30
2019-04-30T17:36:49.449Z,15.03
2019-04-30T17:39:19.009Z,16.55
2019-04-30T17:41:47.553Z,16.48
2019-04-30T17:44:15.735Z,15.90
2019-04-30T17:46:43.907Z,16.87
2019-04-30T17:49:12.093Z,17.92
2019-04-30T17:51:40.276Z,15.03
2019-04-30T17:54:13.475Z,16.27
2019-04-30T17:56:42.601Z,16.25
2019-04-30T17:59:11.264Z,21.27
2019-04-30T18:01:41.095Z,18.60
2019-04-30T18:04:09.267Z,19.52
2019-04-30T18:06:37.453Z,17.02
2019-04-30T18:09:10.745Z,17.92
2019-04-30T18:11:39.619Z,19.00
2019-04-30T18:14:08.824Z,19.15
2019-04-30T18:16:38.687Z,20.35
2019-04-30T18:19:11.599Z,18.23
2019-04-30T18:21:48.578Z,21.60
2019-04-30T18:24:19.529Z,21.15
2019-04-30T18:27:01.628Z,18.15
2019-04-30T18:29:29.798Z,20.65
2019-04-30T18:31:59.843Z,23.55
2019-04-30T18:34:29.204Z,19.92
2019-04-30T18:36:59.327Z,19.20
2019-04-30T18:39:28.885Z,23.02
2019-04-30T18:41:57.288Z,23.45
2019-04-30T18:44:25.461Z,20.97
2019-04-30T18:46:53.987Z,19.98
2019-04-30T18:49:22.174Z,22.13
2019-04-30T18:51:50.355Z,23.80
2019-04-30T18:54:20.896Z,24.52
2019-04-30T18:56:49.005Z,23.73
2019-04-30T18:59:19.509Z,25.02
2019-04-30T19:01:47.437Z,22.58
2019-04-30T19:04:15.615Z,19.62
2019-04-30T19:06:43.801Z,24.18
2019-04-30T19:09:19.674Z,25.72
2019-04-30T19:11:52.817Z,23.02
2019-04-30T19:14:25.478Z,22.55
2019-04-30T19:17:01.038Z,21.97
2019-04-30T19:19:43.367Z,23.32
2019-04-30T19:22:11.552Z,24.37
2019-04-30T19:24:52.714Z,26.07
2019-04-30T19:27:09.641Z,23.55
2019-04-30T19:29:38.125Z,24.65
2019-04-30T19:32:06.322Z,26.48
2019-04-30T19:34:34.875Z,22.00
2019-04-30T19:37:03.482Z,21.95
2019-04-30T19:39:32.497Z,25.05
2019-04-30T19:42:01.018Z,26.77
2019-04-30T19:44:29.834Z,29.15
2019-04-30T19:46:58.591Z,25.30
2019-04-30T19:49:26.801Z,22.98
2019-04-30T19:52:07.597Z,26.60
2019-04-30T19:54:24.886Z,23.90
2019-04-30T19:56:53.292Z,22.45
2019-04-30T19:59:21.840Z,25.27
2019-04-30T20:01:50.195Z,22.25
2019-04-30T20:04:18.648Z,26.45
2019-04-30T20:06:48.763Z,23.60
2019-04-30T20:09:19.278Z,21.97
2019-04-30T20:11:49.307Z,27.98
2019-04-30T20:14:18.677Z,24.92
2019-04-30T20:16:48.667Z,23.25
2019-04-30T20:19:16.946Z,25.50
2019-04-30T20:21:50.740Z,23.77
2019-04-30T20:24:15.368Z,22.87
2019-04-30T20:26:43.544Z,19.87
2019-04-30T20:29:12.020Z,23.12
2019-04-30T20:31:40.499Z,22.02
2019-04-30T20:34:09.254Z,22.05
2019-04-30T20:36:38.885Z,21.40
2019-04-30T20:39:09.109Z,24.15
2019-04-30T20:41:37.281Z,24.60
2019-04-30T20:44:05.464Z,22.60
2019-04-30T20:46:35.325Z,27.45
2019-04-30T20:49:03.867Z,24.00
2019-04-30T20:51:32.040Z,26.55
2019-04-30T20:54:00.220Z,25.70
2019-04-30T20:56:29.170Z,27.70
2019-04-30T20:59:02.347Z,25.48
2019-04-30T21:01:29.419Z,25.60
2019-04-30T21:03:57.342Z,21.30
2019-04-30T21:06:25.752Z,21.52
2019-04-30T21:08:53.941Z,20.85
2019-04-30T21:11:22.459Z,19.77
2019-04-30T21:13:50.936Z,20.88
2019-04-30T21:16:19.421Z,21.30
2019-04-30T21:18:47.897Z,22.32
2019-04-30T21:21:18.610Z,21.93
2019-04-30T21:23:46.813Z,20.92
2019-04-30T21:26:14.993Z,23.07
2019-04-30T21:28:43.177Z,24.77
2019-04-30T21:31:31.104Z,24.30
2019-04-30T21:34:09.704Z,22.32
2019-04-30T21:36:39.555Z,24.37
2019-04-30T21:39:09.051Z,20.10
2019-04-30T21:41:39.448Z,25.20
2019-04-30T21:44:07.233Z,29.18
2019-04-30T21:46:37.102Z,36.85
2019-04-30T21:49:05.636Z,38.42
2019-04-30T21:51:33.811Z,36.05
2019-04-30T21:54:02.005Z,29.15
2019-04-30T21:56:30.458Z,22.40
2019-04-30T21:58:58.935Z,25.45
2019-04-30T22:01:27.107Z,27.30
2019-04-30T22:03:55.590Z,23.90
2019-04-30T22:06:23.769Z,24.57
2019-04-30T22:08:51.952Z,24.85
2019-04-30T22:11:20.121Z,29.57
2019-04-30T22:13:49.416Z,36.17
2019-04-30T22:16:20.072Z,27.37
2019-04-30T22:18:48.020Z,25.32
2019-04-30T22:21:16.205Z,24.60
2019-04-30T22:23:44.377Z,27.20
2019-04-30T22:26:12.698Z,33.18
2019-04-30T22:28:41.248Z,29.92
2019-04-30T22:31:09.536Z,31.60
2019-04-30T22:33:39.206Z,26.52
2019-04-30T22:36:10.924Z,30.65
2019-04-30T22:38:40.810Z,45.35
2019-04-30T22:41:08.995Z,34.70
2019-04-30T22:43:37.167Z,34.48
2019-04-30T22:46:06.994Z,38.48
2019-04-30T22:48:35.434Z,34.18
2019-04-30T22:51:03.622Z,35.23
2019-04-30T22:53:31.797Z,34.40
2019-04-30T22:56:00.268Z,40.05
2019-04-30T22:58:28.748Z,33.70
2019-04-30T23:01:01.530Z,38.00
2019-04-30T23:03:31.361Z,47.55
2019-04-30T23:05:59.529Z,55.52
2019-04-30T23:08:27.700Z,48.83
2019-04-30T23:10:56.177Z,49.25
2019-04-30T23:13:24.351Z,50.28
2019-04-30T23:15:54.450Z,48.90
2019-04-30T23:18:22.624Z,43.85
2019-04-30T23:20:51.178Z,43.25
2019-04-30T23:23:19.353Z,37.25
2019-04-30T23:25:47.540Z,43.70
2019-04-30T23:28:15.710Z,45.38
2019-04-30T23:30:43.919Z,37.90
2019-04-30T23:33:12.408Z,44.63
2019-04-30T23:35:40.591Z,43.78
2019-04-30T23:38:08.767Z,43.58
2019-04-30T23:40:51.094Z,41.60
2019-04-30T23:43:19.751Z,42.13
2019-04-30T23:45:48.094Z,46.75
2019-04-30T23:48:16.273Z,54.40
2019-04-30T23:50:44.445Z,46.00
2019-04-30T23:53:12.629Z,45.30
2019-04-30T23:55:40.803Z,45.10
2019-04-30T23:58:08.985Z,45.88
